Time;durP1;ratioP1;P1;durP2;ratioP2;P2;SDS_P1;SDS_P2;PMS_P1;PMS_P2;Temp;Humidity;BMP_temperature;BMP_pressure;BME280_temperature;BME280_humidity;BME280_pressure;Samples;Min_cycle;Max_cycle;Signal;HPM_P1;HPM_P2
2021/05/01 00:02:27;;;;;;;5.42;3.70;;;;;;;13.79;100.00;98646.14;1817414;78;20907;-68
2021/05/01 00:05:01;;;;;;;12.75;3.87;;;;;;;13.78;100.00;98644.41;1817324;78;21356;-69
2021/05/01 00:07:35;;;;;;;5.72;3.27;;;;;;;13.77;100.00;98647.97;1817265;78;20966;-69
2021/05/01 00:10:12;;;;;;;6.15;3.50;;;;;;;13.76;100.00;98644.91;1816791;79;20926;-67
2021/05/01 00:12:48;;;;;;;4.60;3.40;;;;;;;13.76;100.00;98651.53;1817258;79;21065;-68
2021/05/01 00:15:19;;;;;;;4.22;3.40;;;;;;;13.75;100.00;98645.81;1817395;78;21124;-68
2021/05/01 00:17:55;;;;;;;8.35;3.67;;;;;;;13.73;100.00;98642.34;1817399;78;21403;-68
2021/05/01 00:20:27;;;;;;;3.72;2.98;;;;;;;13.72;100.00;98648.55;1815358;78;20939;-68
2021/05/01 00:22:59;;;;;;;6.40;3.43;;;;;;;13.75;100.00;98650.24;1815674;77;21457;-68
2021/05/01 00:25:32;;;;;;;5.70;3.95;;;;;;;13.79;100.00;98647.47;1815324;79;21013;-68
2021/05/01 00:28:05;;;;;;;7.08;4.83;;;;;;;13.81;100.00;98644.32;1815502;77;20908;-68
2021/05/01 00:30:48;;;;;;;8.78;4.72;;;;;;;13.82;100.00;98647.39;1811248;77;21464;-68
2021/05/01 00:33:24;;;;;;;5.75;4.10;;;;;;;13.73;100.00;98654.27;1814335;77;21564;-68
2021/05/01 00:35:58;;;;;;;6.42;3.72;;;;;;;13.69;100.00;98660.52;1814886;77;20910;-68
2021/05/01 00:38:36;;;;;;;4.78;3.52;;;;;;;13.69;100.00;98663.17;1814780;78;21484;-68
2021/05/01 00:41:08;;;;;;;5.85;4.37;;;;;;;13.74;100.00;98662.63;1814784;79;20930;-68
2021/05/01 00:43:47;;;;;;;7.70;3.83;;;;;;;13.76;100.00;98654.18;1814725;79;21374;-68
2021/05/01 00:46:19;;;;;;;;;;;;;;;13.78;100.00;98651.48;1762692;79;20937;-68
2021/05/01 00:49:06;;;;;;;6.40;3.80;;;;;;;13.77;100.00;98659.89;1814757;77;20200;-68
2021/05/01 00:51:42;;;;;;;9.13;4.62;;;;;;;13.75;100.00;98657.74;1814701;77;20907;-68
2021/05/01 00:54:24;;;;;;;5.37;3.87;;;;;;;13.81;100.00;98666.86;1814714;77;21014;-68
2021/05/01 00:56:59;;;;;;;4.58;3.75;;;;;;;13.84;100.00;98667.23;1814895;77;22094;-68
2021/05/01 00:59:33;;;;;;;6.37;3.50;;;;;;;13.87;100.00;98671.12;1814474;77;21041;-68
2021/05/01 01:02:09;;;;;;;5.08;3.60;;;;;;;13.87;100.00;98675.09;1814737;78;20930;-68
2021/05/01 01:04:55;;;;;;;5.95;3.42;;;;;;;13.90;100.00;98682.09;1814767;77;21100;-69
2021/05/01 01:07:32;;;;;;;4.58;4.00;;;;;;;13.93;100.00;98696.59;1814827;77;20935;-68
2021/05/01 01:10:07;;;;;;;9.30;4.50;;;;;;;13.96;100.00;98696.06;1814744;77;21471;-69
2021/05/01 01:12:39;;;;;;;4.40;3.87;;;;;;;13.98;100.00;98699.55;1814615;77;20890;-69
2021/05/01 01:15:31;;;;;;;8.95;3.83;;;;;;;14.01;100.00;98698.13;1814711;77;20871;-68
2021/05/01 01:18:03;;;;;;;4.30;3.17;;;;;;;14.04;100.00;98706.00;1814692;79;21488;-67
2021/05/01 01:20:40;;;;;;;7.58;3.75;;;;;;;14.08;100.00;98703.69;1826138;77;21436;-67
2021/05/01 01:23:12;;;;;;;6.72;4.00;;;;;;;14.12;100.00;98702.69;1828557;77;21193;-68
2021/05/01 01:25:46;;;;;;;9.85;3.60;;;;;;;14.15;100.00;98701.73;1828595;77;21055;-68
2021/05/01 01:28:21;;;;;;;6.60;3.42;;;;;;;14.15;100.00;98693.31;1828534;77;20906;-68
2021/05/01 01:30:57;;;;;;;5.70;3.67;;;;;;;14.17;100.00;98701.23;1828540;77;20997;-68
2021/05/01 01:33:32;;;;;;;8.60;3.35;;;;;;;14.16;100.00;98695.05;1828551;77;21129;-68
2021/05/01 01:36:13;;;;;;;7.05;3.87;;;;;;;14.16;100.00;98691.53;1828030;77;22114;-68
2021/05/01 01:38:53;;;;;;;7.40;3.60;;;;;;;14.15;100.00;98691.99;1828462;77;21048;-68
2021/05/01 01:41:30;;;;;;;5.75;3.87;;;;;;;14.13;100.00;98695.59;1828504;77;21017;-68
2021/05/01 01:44:09;;;;;;;5.17;3.70;;;;;;;14.10;100.00;98695.69;1828496;77;20874;-68
2021/05/01 01:46:45;;;;;;;5.37;3.30;;;;;;;14.11;100.00;98700.08;1828612;78;20985;-68
2021/05/01 01:49:18;;;;;;;6.28;3.40;;;;;;;14.15;100.00;98703.06;1828456;77;21185;-68
2021/05/01 01:52:04;;;;;;;7.53;4.25;;;;;;;14.15;100.00;98711.02;1828532;77;21082;-68
2021/05/01 01:54:43;;;;;;;9.25;3.67;;;;;;;14.16;100.00;98703.47;1828582;77;20930;-68
2021/05/01 01:57:16;;;;;;;4.92;3.72;;;;;;;14.16;100.00;98712.30;1828492;77;20974;-68
2021/05/01 01:59:49;;;;;;;8.18;3.65;;;;;;;14.19;100.00;98714.03;1828595;77;21052;-68
2021/05/01 02:02:25;;;;;;;7.42;3.40;;;;;;;14.20;100.00;98710.92;1828557;77;21366;-68
2021/05/01 02:05:00;;;;;;;7.28;3.80;;;;;;;14.17;100.00;98706.54;1827547;77;21049;-68
2021/05/01 02:07:37;;;;;;;5.65;3.42;;;;;;;14.11;100.00;98710.69;1828530;77;20929;-68
2021/05/01 02:10:17;;;;;;;5.15;3.50;;;;;;;14.07;100.00;98718.31;1828527;78;20989;-68
2021/05/01 02:12:53;;;;;;;7.17;4.00;;;;;;;14.07;100.00;98727.14;1828437;77;21541;-68
2021/05/01 02:15:25;;;;;;;;;;;;;;;14.09;100.00;98726.64;1831104;77;20962;-68
2021/05/01 02:18:00;;;;;;;7.03;4.08;;;;;;;14.10;100.00;98734.14;1828503;77;20112;-68
2021/05/01 02:20:32;;;;;;;7.05;4.28;;;;;;;14.08;100.00;98737.29;1819636;77;21730;-67
2021/05/01 02:23:04;;;;;;;6.53;4.20;;;;;;;14.07;100.00;98748.35;1814604;77;21026;-67
2021/05/01 02:25:36;;;;;;;7.30;4.22;;;;;;;14.08;100.00;98750.09;1814774;77;21140;-67
2021/05/01 02:28:07;;;;;;;7.90;4.05;;;;;;;14.09;100.00;98743.87;1814906;79;22365;-67
2021/05/01 02:30:39;;;;;;;7.17;4.87;;;;;;;14.10;100.00;98750.05;1814675;79;21491;-67
2021/05/01 02:33:17;;;;;;;7.53;4.90;;;;;;;14.09;100.00;98750.52;1814720;79;21476;-68
2021/05/01 02:35:49;;;;;;;8.65;5.75;;;;;;;14.10;100.00;98752.25;1814202;77;20975;-68
2021/05/01 02:38:20;;;;;;;9.10;5.53;;;;;;;14.09;100.00;98753.62;1814693;77;21168;-68
2021/05/01 02:40:51;;;;;;;8.23;5.75;;;;;;;14.10;100.00;98750.05;1814135;77;21195;-68
2021/05/01 02:43:22;;;;;;;10.40;5.90;;;;;;;14.09;100.00;98745.66;1743114;81;21087;-67
2021/05/01 02:45:53;;;;;;;10.63;6.83;;;;;;;14.11;100.00;98749.14;1743108;81;21129;-68
2021/05/01 02:48:25;;;;;;;;;;;;;;;14.10;100.00;98749.59;1745725;81;20950;-67
2021/05/01 02:50:59;;;;;;;9.95;6.17;;;;;;;14.13;100.00;98756.60;1743190;81;20237;-67
2021/05/01 02:53:36;;;;;;;10.00;6.17;;;;;;;14.15;100.00;98757.44;1812566;78;22277;-67
2021/05/01 02:56:05;;;;;;;16.32;7.40;;;;;;;14.19;100.00;98761.78;1812403;78;21041;-67
2021/05/01 02:58:39;;;;;;;12.33;7.10;;;;;;;14.18;100.00;98764.85;1812423;78;21023;-67
2021/05/01 03:01:15;;;;;;;9.05;6.53;;;;;;;14.20;100.00;98765.30;1812460;78;21065;-68
2021/05/01 03:03:51;;;;;;;15.60;6.20;;;;;;;14.24;100.00;98767.83;1812474;78;21136;-68
2021/05/01 03:06:22;;;;;;;18.30;9.85;;;;;;;14.28;100.00;98774.80;1743230;82;22120;-67
2021/05/01 03:08:58;;;;;;;30.57;11.90;;;;;;;14.31;100.00;98777.81;1812356;78;21489;-67
2021/05/01 03:11:30;;;;;;;30.23;13.48;;;;;;;14.29;100.00;98776.53;1812699;78;21573;-67
2021/05/01 03:14:02;;;;;;;14.30;7.67;;;;;;;14.30;100.00;98776.95;1743365;81;21010;-67
2021/05/01 03:16:36;;;;;;;18.23;9.30;;;;;;;14.32;100.00;98780.88;1812516;78;21898;-67
2021/05/01 03:19:17;;;;;;;18.05;10.03;;;;;;;14.34;100.00;98781.26;1743134;81;21401;-67
2021/05/01 03:22:01;;;;;;;15.30;9.00;;;;;;;14.37;100.00;98781.17;1812460;78;20962;-67
2021/05/01 03:24:34;;;;;;;26.10;10.95;;;;;;;14.42;100.00;98785.93;1743200;81;21133;-67
2021/05/01 03:27:07;;;;;;;24.47;10.28;;;;;;;14.44;100.00;98788.09;1811769;78;21065;-67
2021/05/01 03:29:38;;;;;;;18.27;9.13;;;;;;;14.46;100.00;98780.08;1812686;78;21034;-67
2021/05/01 03:32:09;;;;;;;;;;;;;;;14.44;100.00;98784.11;1745782;82;21217;-66
2021/05/01 03:34:39;;;;;;;15.98;8.08;;;;;;;14.42;100.00;98776.64;1743192;81;20134;-67
2021/05/01 03:37:15;;;;;;;19.05;10.05;;;;;;;14.37;100.00;98776.33;1812493;78;21121;-66
2021/05/01 03:39:46;;;;;;;14.10;8.40;;;;;;;14.34;100.00;98775.08;1743144;82;21063;-66
2021/05/01 03:42:18;;;;;;;13.13;7.17;;;;;;;14.29;100.00;98776.53;1812775;78;21065;-67
2021/05/01 03:44:51;;;;;;;9.33;6.60;;;;;;;14.21;100.00;98774.55;1812338;78;23580;-67
2021/05/01 03:47:24;;;;;;;7.20;6.30;;;;;;;14.12;100.00;98774.75;1743116;81;21556;-67
2021/05/01 03:50:01;;;;;;;7.13;5.70;;;;;;;14.05;100.00;98771.84;1812714;78;21097;-67
2021/05/01 03:52:40;;;;;;;9.40;5.80;;;;;;;14.00;100.00;98772.42;1812547;78;21238;-67
2021/05/01 03:55:13;;;;;;;7.17;5.60;;;;;;;13.99;100.00;98774.66;1742896;81;21097;-67
2021/05/01 03:57:45;;;;;;;7.90;5.85;;;;;;;14.05;100.00;98783.78;1811023;78;21199;-67
2021/05/01 04:00:18;;;;;;;9.15;6.00;;;;;;;14.11;100.00;98784.49;1743227;82;21026;-67
2021/05/01 04:02:48;;;;;;;8.70;6.60;;;;;;;14.17;100.00;98783.46;1812724;78;20923;-66
2021/05/01 04:05:21;;;;;;;8.20;5.97;;;;;;;14.23;100.00;98789.09;1743355;82;21596;-67
2021/05/01 04:07:51;;;;;;;9.85;5.95;;;;;;;14.29;100.00;98791.13;1743361;82;21053;-68
2021/05/01 04:10:21;;;;;;;10.70;6.15;;;;;;;14.37;100.00;98794.44;1812577;79;21342;-67
2021/05/01 04:12:51;;;;;;;9.28;6.47;;;;;;;14.45;100.00;98796.46;1743289;82;21192;-67
2021/05/01 04:15:23;;;;;;;16.52;7.33;;;;;;;14.53;100.00;98791.40;1743342;81;20971;-67
2021/05/01 04:17:54;;;;;;;11.18;6.60;;;;;;;14.59;100.00;98797.41;1743436;82;21204;-67
2021/05/01 04:20:24;;;;;;;12.25;7.37;;;;;;;14.65;100.00;98790.59;1807927;79;21220;-67
2021/05/01 04:22:54;;;;;;;18.75;9.75;;;;;;;14.74;100.00;98780.20;1727691;82;22279;-67
2021/05/01 04:25:24;;;;;;;14.53;10.20;;;;;;;14.83;100.00;98782.59;1736602;82;21204;-67
2021/05/01 04:27:54;;;;;;;12.45;9.63;;;;;;;14.91;100.00;98780.58;1736695;82;21244;-67
2021/05/01 04:30:24;;;;;;;12.70;9.63;;;;;;;15.04;100.00;98783.74;1727609;82;21754;-67
2021/05/01 04:32:58;;;;;;;14.05;9.23;;;;;;;15.13;100.00;98776.83;1736678;82;21062;-67
2021/05/01 04:35:29;;;;;;;14.23;8.58;;;;;;;15.23;100.00;98778.77;1795563;79;22127;-67
2021/05/01 04:37:59;;;;;;;14.90;9.58;;;;;;;15.36;100.00;98781.45;1727436;82;21573;-67
2021/05/01 04:40:29;;;;;;;11.88;8.95;;;;;;;15.44;100.00;98777.64;1736489;82;21051;-67
2021/05/01 04:43:02;;;;;;;12.82;8.83;;;;;;;15.56;100.00;98780.36;1727418;82;21101;-67
2021/05/01 04:45:32;;;;;;;9.75;8.35;;;;;;;15.67;100.00;98782.28;1736763;82;21150;-67
2021/05/01 04:48:03;;;;;;;11.22;8.33;;;;;;;15.81;100.00;98788.48;1795530;79;21329;-67
2021/05/01 04:50:40;;;;;;;10.50;8.10;;;;;;;15.92;100.00;98785.00;1727533;82;21217;-67
2021/05/01 04:53:09;;;;;;;12.90;8.75;;;;;;;16.04;100.00;98791.70;1736670;82;21179;-67
2021/05/01 04:55:40;;;;;;;11.30;8.78;;;;;;;16.16;100.00;98795.30;1727481;82;21573;-67
2021/05/01 04:58:10;;;;;;;12.75;8.40;;;;;;;16.26;100.00;98795.39;1736799;82;21600;-67
2021/05/01 05:00:40;;;;;;;15.28;8.95;;;;;;;16.35;100.00;98801.72;1727451;82;22195;-67
2021/05/01 05:03:11;;;;;;;13.58;8.78;;;;;;;16.45;100.00;98801.40;1736754;82;21157;-67
2021/05/01 05:05:41;;;;;;;11.08;8.95;;;;;;;16.54;100.00;98798.41;1727511;82;21193;-72
2021/05/01 05:08:12;;;;;;;12.70;9.35;;;;;;;16.61;100.00;98806.16;1736655;82;21122;-75
2021/05/01 05:10:43;;;;;;;14.25;8.90;;;;;;;16.74;100.00;98799.08;1728144;82;21540;-74
2021/05/01 05:13:23;;;;;;;13.18;8.43;;;;;;;16.74;100.00;98799.08;1737275;82;21290;-74
2021/05/01 05:15:52;;;;;;;11.97;8.68;;;;;;;16.80;100.00;98794.40;1708967;83;21197;-73
2021/05/01 05:18:23;;;;;;;11.38;8.65;;;;;;;16.87;100.00;98795.04;1737200;82;21019;-73
2021/05/01 05:20:54;;;;;;;11.45;8.95;;;;;;;16.95;100.00;98811.14;1799206;79;20919;-72
2021/05/01 05:23:25;;;;;;;12.50;8.90;;;;;;;17.03;100.00;98814.89;1736417;82;21500;-73
2021/05/01 05:26:01;;;;;;;12.10;9.80;;;;;;;17.11;100.00;98819.46;1736475;82;21492;-73
2021/05/01 05:28:31;;;;;;;10.70;8.55;;;;;;;17.23;100.00;98821.66;1735794;82;21038;-73
2021/05/01 05:31:01;;;;;;;9.85;8.65;;;;;;;17.33;100.00;98826.17;1735763;82;21038;-69
2021/05/01 05:33:31;;;;;;;10.65;8.68;;;;;;;17.43;100.00;98822.22;1803977;79;21011;-71
2021/05/01 05:36:02;;;;;;;13.43;9.80;;;;;;;17.53;100.00;98820.09;1735684;82;21173;-70
2021/05/01 05:38:35;;;;;;;10.60;9.18;;;;;;;17.60;100.00;98811.78;1735625;82;21377;-70
2021/05/01 05:41:04;;;;;;;12.18;9.55;;;;;;;17.68;100.00;98814.18;1803664;79;21556;-70
2021/05/01 05:43:35;;;;;;;13.13;9.10;;;;;;;17.76;100.00;98811.20;1804101;79;21093;-69
2021/05/01 05:48:51;;;;;;;12.55;9.78;;;;;;;18.03;100.00;98814.56;1821461;76;22897;-71
2021/05/01 05:51:21;;;;;;;13.38;9.55;;;;;;;18.07;100.00;98814.84;1776413;79;21025;-71
2021/05/01 05:53:51;;;;;;;12.82;9.63;;;;;;;18.16;100.00;98815.79;1777082;80;21363;-69
2021/05/01 05:56:21;;;;;;;13.80;9.63;;;;;;;18.33;100.00;98813.73;1777261;79;21088;-70
2021/05/01 05:58:53;;;;;;;12.35;9.05;;;;;;;18.33;100.00;98813.73;1777207;80;21002;-69
2021/05/01 06:01:25;;;;;;;14.80;9.90;;;;;;;18.48;100.00;98813.97;1777024;79;20978;-69
2021/05/01 06:03:55;;;;;;;13.88;9.53;;;;;;;18.62;100.00;98812.06;1747820;80;21002;-70
2021/05/01 06:06:32;;;;;;;12.73;10.08;;;;;;;18.75;100.00;98805.70;1777171;80;22255;-71
2021/05/01 06:09:02;;;;;;;13.60;9.75;;;;;;;18.83;100.00;98802.22;1777049;79;21092;-67
2021/05/01 06:11:32;;;;;;;12.23;9.75;;;;;;;18.94;100.00;98800.44;1777071;79;21077;-68
2021/05/01 06:14:05;;;;;;;14.00;10.18;;;;;;;19.02;100.00;98807.16;1777154;80;21587;-66
2021/05/01 06:16:40;;;;;;;13.05;9.63;;;;;;;19.09;100.00;98809.09;1777083;80;20958;-67
2021/05/01 06:19:11;;;;;;;12.37;9.85;;;;;;;19.22;100.00;98814.27;1777080;80;22328;-67
2021/05/01 06:21:42;;;;;;;11.45;9.65;;;;;;;19.33;100.00;98800.38;1777145;80;21552;-67
2021/05/01 06:24:12;;;;;;;12.43;10.00;;;;;;;19.42;100.00;98796.84;1777127;79;21589;-67
2021/05/01 06:26:41;;;;;;;11.83;9.68;;;;;;;19.56;100.00;98802.03;1777040;79;21212;-63
2021/05/01 06:29:11;;;;;;;17.87;10.75;;;;;;;19.67;100.00;98800.57;1777055;80;21128;-67
2021/05/01 06:31:41;;;;;;;18.52;10.35;;;;;;;19.79;100.00;98796.42;1777114;79;21424;-69
2021/05/01 06:34:13;;;;;;;15.70;10.95;;;;;;;19.92;100.00;98799.40;1777125;79;21175;-67
2021/05/01 06:36:43;;;;;;;21.77;10.55;;;;;;;20.00;100.00;98794.05;1777041;80;21064;-65
2021/05/01 06:39:14;;;;;;;15.00;10.65;;;;;;;20.09;100.00;98794.93;1777040;80;21199;-68
2021/05/01 06:41:55;;;;;;;13.48;10.10;;;;;;;20.19;100.00;98803.36;1777074;79;21647;-68
2021/05/01 06:44:48;;;;;;;13.83;10.37;;;;;;;20.31;100.00;98813.92;1777276;79;21337;-69
2021/05/01 06:47:26;;;;;;;11.80;9.53;;;;;;;20.48;100.00;98812.66;1836563;76;22402;-69
2021/05/01 06:50:11;;;;;;;18.27;10.38;;;;;;;20.54;100.00;98815.02;1809163;78;20982;-66
2021/05/01 06:52:46;;;;;;;11.57;9.18;;;;;;;20.63;100.00;98825.25;1808959;78;21187;-68
2021/05/01 06:55:19;;;;;;;12.68;9.83;;;;;;;20.72;100.00;98827.92;1794669;78;21564;-70
2021/05/01 06:57:54;;;;;;;11.75;8.33;;;;;;;20.81;100.00;98827.91;1777146;79;20986;-69
2021/05/01 07:00:26;;;;;;;16.35;9.63;;;;;;;20.90;100.00;98831.48;1776913;80;21124;-69
2021/05/01 07:03:07;;;;;;;17.62;10.88;;;;;;;21.00;100.00;98828.70;1776808;79;21022;-74
2021/05/01 07:05:37;;;;;;;15.50;10.65;;;;;;;21.14;100.00;98837.34;1778390;80;21369;-71
2021/05/01 07:08:12;;;;;;;17.42;10.90;;;;;;;21.23;100.00;98841.77;1777813;80;21001;-71
2021/05/01 07:10:44;;;;;;;18.10;11.25;;;;;;;21.31;100.00;98840.04;1778413;79;21014;-72
2021/05/01 07:13:16;;;;;;;18.42;11.22;;;;;;;21.40;100.00;98844.03;1778208;80;21053;-72
2021/05/01 07:15:46;;;;;;;25.23;11.47;;;;;;;21.47;100.00;98846.30;1778867;79;21037;-73
2021/05/01 07:18:16;;;;;;;27.07;11.97;;;;;;;21.49;100.00;98849.76;1778423;80;21180;-74
2021/05/01 07:20:48;;;;;;;27.95;11.22;;;;;;;21.42;100.00;98848.84;1778442;79;21053;-72
2021/05/01 07:23:22;;;;;;;25.20;10.63;;;;;;;21.40;98.81;98845.38;1778536;79;20887;-73
2021/05/01 07:25:53;;;;;;;26.93;10.53;;;;;;;21.43;96.28;98844.73;1778646;80;20926;-72
2021/05/01 07:28:26;;;;;;;22.50;10.45;;;;;;;21.53;94.61;98842.41;1778563;79;20922;-73
2021/05/01 07:30:57;;;;;;;20.65;11.33;;;;;;;21.68;96.12;98844.23;1778568;80;21190;-73
2021/05/01 07:33:38;;;;;;;24.50;13.08;;;;;;;21.81;95.78;98852.02;1778390;80;21678;-73
2021/05/01 07:36:14;;;;;;;27.45;13.30;;;;;;;21.84;96.69;98849.16;1774562;79;21009;-73
2021/05/01 07:38:45;;;;;;;18.40;12.10;;;;;;;21.82;96.21;98844.34;1778405;79;20887;-73
2021/05/01 07:41:17;;;;;;;24.20;13.03;;;;;;;21.86;95.30;98841.02;1776141;79;21187;-72
2021/05/01 07:43:49;;;;;;;23.83;12.90;;;;;;;21.88;93.52;98837.77;1782693;77;21215;-72
2021/05/01 07:46:23;;;;;;;16.80;10.95;;;;;;;21.91;91.39;98837.59;1794994;79;21009;-73
2021/05/01 07:48:59;;;;;;;16.60;10.13;;;;;;;21.93;91.75;98839.23;1784880;79;20937;-72
2021/05/01 07:51:34;;;;;;;21.45;10.08;;;;;;;22.03;88.93;98837.36;1784652;80;21005;-72
2021/05/01 07:54:06;;;;;;;16.45;9.83;;;;;;;22.11;88.02;98841.84;1783690;79;20922;-72
2021/05/01 07:56:38;;;;;;;12.18;9.00;;;;;;;22.16;86.31;98847.34;1784688;79;21322;-73
2021/05/01 07:59:08;;;;;;;13.45;8.73;;;;;;;22.17;88.54;98846.86;1784142;79;21076;-73
2021/05/01 08:01:38;;;;;;;10.32;7.20;;;;;;;22.12;88.34;98847.60;1784259;79;21906;-74
2021/05/01 08:04:12;;;;;;;11.48;7.12;;;;;;;22.16;87.27;98852.71;1784279;79;21041;-74
2021/05/01 08:06:44;;;;;;;32.93;9.33;;;;;;;22.20;90.75;98855.61;1784254;80;20927;-73
2021/05/01 08:09:16;;;;;;;11.35;7.67;;;;;;;22.23;90.70;98853.22;1784470;79;20945;-74
2021/05/01 08:11:46;;;;;;;13.40;6.67;;;;;;;22.31;91.79;98861.73;1784309;79;21052;-72
2021/05/01 08:14:16;;;;;;;8.23;5.58;;;;;;;22.34;88.77;98855.31;1784399;79;20934;-73
2021/05/01 08:16:47;;;;;;;7.08;5.65;;;;;;;22.43;89.42;98861.01;1802865;79;21096;-73
2021/05/01 08:19:22;;;;;;;7.78;5.15;;;;;;;22.55;89.75;98860.76;1784447;79;21124;-73
2021/05/01 08:21:52;;;;;;;6.17;5.00;;;;;;;22.63;84.94;98858.00;1784335;79;21427;-73
2021/05/01 08:24:22;;;;;;;6.60;5.78;;;;;;;22.74;82.06;98841.73;1784058;79;21155;-74
2021/05/01 08:26:52;;;;;;;7.05;4.97;;;;;;;22.76;82.46;98857.30;1784135;80;20930;-74
2021/05/01 08:29:21;;;;;;;5.47;4.97;;;;;;;22.73;79.86;98855.66;1784082;80;21045;-73
2021/05/01 08:31:52;;;;;;;12.68;4.80;;;;;;;22.82;79.70;98863.20;1783973;80;21005;-71
2021/05/01 08:34:22;;;;;;;8.83;3.77;;;;;;;22.85;79.97;98856.29;1794037;79;21431;-71
2021/05/01 08:36:53;;;;;;;5.78;4.15;;;;;;;22.87;78.53;98852.16;1809919;77;21473;-69
2021/05/01 08:39:22;;;;;;;12.93;4.83;;;;;;;22.89;79.77;98849.77;1815191;77;20903;-63
2021/05/01 08:41:52;;;;;;;16.67;9.13;;;;;;;22.93;81.35;98849.09;1798570;78;20899;-64
2021/05/01 08:44:23;;;;;;;8.10;5.42;;;;;;;22.99;78.95;98842.47;1791503;79;22090;-68
2021/05/01 08:46:53;;;;;;;6.17;4.12;;;;;;;23.02;76.67;98844.50;1812051;77;21364;-67
2021/05/01 08:49:23;;;;;;;6.17;5.58;;;;;;;23.11;75.08;98845.75;1816049;79;21516;-68
2021/05/01 08:51:53;;;;;;;21.73;3.92;;;;;;;23.18;72.69;98835.89;1791577;79;21014;-67
2021/05/01 08:54:23;;;;;;;10.32;4.83;;;;;;;23.31;72.63;98833.77;1723435;81;20905;-69
2021/05/01 08:56:54;;;;;;;5.95;4.05;;;;;;;23.41;74.96;98825.50;1798528;77;20911;-69
2021/05/01 08:59:25;;;;;;;26.50;5.10;;;;;;;23.46;76.28;98824.23;1796600;79;22268;-68
2021/05/01 09:01:57;;;;;;;6.08;4.10;;;;;;;23.46;76.28;98824.23;1783917;79;20940;-69
2021/05/01 09:04:27;;;;;;;5.75;4.53;;;;;;;23.55;75.75;98818.30;1744153;81;21044;-69
2021/05/01 09:06:58;;;;;;;5.17;3.90;;;;;;;23.67;75.49;98815.33;1779438;77;21539;-69
2021/05/01 09:09:33;;;;;;;4.80;3.87;;;;;;;23.78;73.64;98812.80;1772540;79;20962;-70
2021/05/01 09:12:04;;;;;;;3.87;3.22;;;;;;;23.87;74.64;98807.29;1805801;79;21456;-69
2021/05/01 09:14:36;;;;;;;6.20;4.03;;;;;;;23.95;73.28;98800.05;1807967;77;20930;-68
2021/05/01 09:17:07;;;;;;;;;;;;;;;24.03;74.26;98797.71;1800495;77;21092;-66
2021/05/01 09:19:40;;;;;;;7.53;5.42;;;;;;;24.03;73.28;98797.23;1784252;80;20203;-66
2021/05/01 09:22:13;;;;;;;5.53;4.47;;;;;;;23.94;72.98;98796.49;1727521;81;20964;-67
2021/05/01 09:24:43;;;;;;;7.80;4.97;;;;;;;23.88;73.44;98798.24;1794298;77;21346;-67
2021/05/01 09:27:17;;;;;;;8.35;4.15;;;;;;;23.84;74.08;98792.20;1786398;78;21139;-69
2021/05/01 09:29:49;;;;;;;80.28;8.30;;;;;;;23.89;79.16;98793.23;1783851;79;20938;-68
2021/05/01 09:32:23;;;;;;;18.57;3.98;;;;;;;23.95;80.96;98791.97;1717718;82;20911;-65
2021/05/01 09:34:55;;;;;;;6.22;3.40;;;;;;;24.00;78.04;98786.66;1784395;79;21052;-76
2021/05/01 09:37:27;;;;;;;3.90;3.00;;;;;;;23.99;76.45;98781.37;1783376;80;21369;-64
2021/05/01 09:40:01;;;;;;;9.28;3.37;;;;;;;24.00;77.35;98784.45;1743667;81;21155;-63
2021/05/01 09:42:35;;;;;;;3.52;2.98;;;;;;;23.99;75.79;98779.54;1785734;79;20989;-68
2021/05/01 09:45:21;;;;;;;4.37;3.10;;;;;;;23.96;72.12;98775.70;1788858;79;20935;-67
2021/05/01 09:47:54;;;;;;;7.25;2.95;;;;;;;23.97;70.29;98781.47;1770962;79;21008;-71
2021/05/01 09:50:30;;;;;;;6.15;2.95;;;;;;;24.04;68.23;98776.53;1767381;79;21342;-67
2021/05/01 09:53:11;;;;;;;6.70;3.35;;;;;;;24.11;68.99;98776.50;1766895;79;20992;-67
2021/05/01 09:55:53;;;;;;;3.45;2.85;;;;;;;24.11;71.58;98770.63;1766909;79;21031;-68
2021/05/01 09:58:31;;;;;;;3.87;2.80;;;;;;;24.16;72.65;98773.91;1767129;79;20908;-69
2021/05/01 10:01:17;;;;;;;5.92;3.22;;;;;;;24.17;71.68;98763.52;1767531;79;21007;-70
2021/05/01 10:03:48;;;;;;;5.62;2.47;;;;;;;24.21;69.63;98767.34;1767449;81;22186;-72
2021/05/01 10:06:19;;;;;;;2.87;2.30;;;;;;;24.32;71.39;98773.77;1767086;79;20960;-68
2021/05/01 10:08:55;;;;;;;5.30;2.40;;;;;;;24.38;71.48;98777.88;1745859;81;21003;-65
2021/05/01 10:11:30;;;;;;;4.78;2.40;;;;;;;24.45;70.07;98781.39;1766948;79;20951;-67
2021/05/01 10:14:01;;;;;;;8.00;2.60;;;;;;;24.55;69.30;98782.11;1766643;79;21000;-68
2021/05/01 10:16:30;;;;;;;5.70;2.67;;;;;;;24.59;67.37;98791.71;1766484;79;22260;-68
2021/05/01 10:19:13;;;;;;;4.05;2.33;;;;;;;24.56;63.97;98787.39;1766304;79;20999;-67
2021/05/01 10:21:44;;;;;;;4.33;2.72;;;;;;;24.57;65.85;98781.03;1766509;81;21074;-70
2021/05/01 10:24:15;;;;;;;4.83;2.25;;;;;;;24.72;65.24;98775.09;1766516;79;21011;-68
2021/05/01 10:26:47;;;;;;;4.33;2.20;;;;;;;24.87;65.30;98783.45;1766294;79;21016;-66
2021/05/01 10:29:34;;;;;;;6.37;2.10;;;;;;;24.89;63.01;98775.25;1766374;80;21192;-64
2021/05/01 10:32:33;;;;;;;2.60;1.90;;;;;;;24.83;61.44;98770.29;1766267;79;20952;-66
2021/05/01 10:35:04;;;;;;;2.55;1.95;;;;;;;24.79;59.94;98766.45;1766209;79;21499;-66
2021/05/01 10:37:36;;;;;;;8.98;2.90;;;;;;;24.82;60.72;98765.87;1766062;80;20920;-66
2021/05/01 10:40:07;;;;;;;2.42;2.15;;;;;;;24.91;60.73;98765.22;1766228;79;21510;-66
2021/05/01 10:42:38;;;;;;;4.62;2.27;;;;;;;25.01;60.68;98761.78;1766361;79;22342;-69
2021/05/01 10:45:09;;;;;;;4.12;2.20;;;;;;;25.15;59.27;98768.06;1766021;79;21035;-72
2021/05/01 10:47:39;;;;;;;5.92;2.47;;;;;;;25.29;59.48;98767.45;1766036;79;21193;-67
2021/05/01 10:50:40;;;;;;;3.30;2.42;;;;;;;25.40;59.42;98770.72;1770495;78;21074;-66
2021/05/01 10:53:20;;;;;;;4.80;2.80;;;;;;;25.46;58.82;98770.76;1684936;84;20951;-67
2021/05/01 10:55:54;;;;;;;3.92;3.22;;;;;;;25.48;59.26;98780.47;1685671;84;22128;-66
2021/05/01 10:58:36;;;;;;;3.60;2.87;;;;;;;25.40;58.28;98776.98;1685565;83;20954;-66
2021/05/01 11:01:11;;;;;;;4.95;2.92;;;;;;;25.33;57.32;98768.09;1685625;84;21140;-68
2021/05/01 11:03:45;;;;;;;3.70;2.95;;;;;;;25.30;57.18;98769.66;1658286;84;21192;-65
2021/05/01 11:06:23;;;;;;;3.50;2.30;;;;;;;25.23;56.82;98773.29;1683173;84;21006;-66
2021/05/01 11:09:00;;;;;;;4.30;2.60;;;;;;;25.25;57.74;98770.48;1683103;84;21378;-66
2021/05/01 11:11:40;;;;;;;3.22;2.40;;;;;;;25.30;58.33;98762.91;1683033;84;21123;-67
2021/05/01 11:14:20;;;;;;;3.83;2.60;;;;;;;25.38;57.10;98757.81;1683069;84;21097;-66
2021/05/01 11:16:54;;;;;;;5.12;2.62;;;;;;;25.53;59.59;98750.42;1683083;84;21156;-65
2021/05/01 11:19:24;;;;;;;2.62;2.20;;;;;;;25.60;61.88;98758.48;1684173;83;20978;-63
2021/05/01 11:21:54;;;;;;;5.12;2.40;;;;;;;25.68;62.75;98756.97;1683175;84;21169;-63
2021/05/01 11:24:24;;;;;;;12.70;2.75;;;;;;;25.82;63.97;98756.44;1683032;84;21126;-64
2021/05/01 11:26:54;;;;;;;6.22;2.62;;;;;;;26.00;61.55;98760.45;1683184;85;21145;-63
2021/05/01 11:29:24;;;;;;;4.47;2.60;;;;;;;26.18;60.11;98755.53;1683082;84;21180;-64
2021/05/01 11:31:54;;;;;;;15.58;3.33;;;;;;;26.22;57.72;98744.84;1656624;85;21065;-64
2021/05/01 11:34:25;;;;;;;6.97;2.42;;;;;;;26.19;58.70;98738.33;1683251;84;21435;-64
2021/05/01 11:36:55;;;;;;;4.75;2.30;;;;;;;26.03;56.47;98740.85;1683228;84;21204;-65
2021/05/01 11:39:25;;;;;;;2.47;2.05;;;;;;;25.93;55.89;98740.28;1683228;84;21620;-64
2021/05/01 11:41:56;;;;;;;3.37;2.37;;;;;;;25.87;56.15;98740.74;1645540;84;21181;-62
2021/05/01 11:44:27;;;;;;;5.53;3.07;;;;;;;25.79;56.70;98737.27;1683850;84;21496;-66
2021/05/01 11:47:09;;;;;;;3.95;2.50;;;;;;;25.67;56.62;98728.72;1683345;84;21332;-65
2021/05/01 11:49:40;;;;;;;10.68;2.75;;;;;;;25.57;57.44;98725.81;1683947;84;21655;-69
2021/05/01 11:52:36;;;;;;;9.38;2.58;;;;;;;25.37;56.35;98727.25;1680527;84;21070;-69
2021/05/01 11:55:17;;;;;;;5.12;2.62;;;;;;;25.13;55.50;98724.12;1677591;84;21018;-70
2021/05/01 11:57:50;;;;;;;6.17;2.25;;;;;;;24.88;56.72;98723.61;1677365;84;21180;-68